Kaministiqua — CFN4612 — position and weather

sailwx.info

Track history (hours):
 
Tides and Currents Weather Stations Pressure Air Temp Water Temp Dewpoint Dewpoint Depression Visibility Wind Speed Wind Dir Waves Ship Positions

Kaministiqua

Last reported at 2016-Sep-26 00:07 UTC. Time now 2016-Sep-26 13:56 UTC.
Position N 46°14' W 072°46'.

Length 223 m; draft 8.1 m.

Type: Cargo ship. MMSI: 316009457.

Date/timePositionNaut miles runAvg speedWind from/ knotsBaromVisibWave heightAir tempDewpointWater temp
2016-Sep-26 00:07N 46°14' W 072°46'2911.2
2016-Sep-25 21:34N 45°53' W 073°14'28 6.9
2016-Sep-25 17:30N 45°27' W 073°30'4 3.3
2016-Sep-25 16:19N 45°24' W 073°34'3 2.5
2016-Sep-25 15:17N 45°24' W 073°38'5 6.2
2016-Sep-25 14:34N 45°24' W 073°44'10 5.1
2016-Sep-25 12:34N 45°18' W 073°56'2 1.5
2016-Sep-25 11:32N 45°17' W 073°57'5 4.9
2016-Sep-25 10:33N 45°14' W 074°01'120 8.0
2016-Sep-24 19:34N 44°07' W 076°22'  
2016-Sep-22 04:33N 45°33' W 083°22'1211.7
2016-Sep-22 03:32N 45°41' W 083°33'3210.7
2016-Sep-22 00:33N 46°07' W 084°01'9 9.0
2016-Sep-21 23:31N 46°13' W 084°10'  
2016-Sep-16 02:08N 46°23' W 084°14'13 7.2
2016-Sep-16 00:21N 46°11' W 084°06'  
Track history (hours):
 
Tides and Currents Weather Stations Pressure Air Temp Water Temp Dewpoint Dewpoint Depression Visibility Wind Speed Wind Dir Waves Ship Positions

Kaministiqua

Last reported at 2016-Sep-26 00:07 UTC. Time now 2016-Sep-26 13:56 UTC.
Position N 46°14' W 072°46'.

Length 223 m; draft 8.1 m.

Type: Cargo ship. MMSI: 316009457.

Date/timePositionNaut miles runAvg speedWind from/ knotsBaromVisibWave heightAir tempDewpointWater temp
2016-Sep-26 00:07N 46°14' W 072°46'2911.2
2016-Sep-25 21:34N 45°53' W 073°14'28 6.9
2016-Sep-25 17:30N 45°27' W 073°30'4 3.3
2016-Sep-25 16:19N 45°24' W 073°34'3 2.5
2016-Sep-25 15:17N 45°24' W 073°38'5 6.2
2016-Sep-25 14:34N 45°24' W 073°44'10 5.1
2016-Sep-25 12:34N 45°18' W 073°56'2 1.5
2016-Sep-25 11:32N 45°17' W 073°57'5 4.9
2016-Sep-25 10:33N 45°14' W 074°01'120 8.0
2016-Sep-24 19:34N 44°07' W 076°22'  
2016-Sep-22 04:33N 45°33' W 083°22'1211.7
2016-Sep-22 03:32N 45°41' W 083°33'3210.7
2016-Sep-22 00:33N 46°07' W 084°01'9 9.0
2016-Sep-21 23:31N 46°13' W 084°10'  
2016-Sep-16 02:08N 46°23' W 084°14'13 7.2
2016-Sep-16 00:21N 46°11' W 084°06'  

Dump ship's entire track history